Time;durP1;ratioP1;P1;durP2;ratioP2;P2;SDS_P1;SDS_P2;PMS_P1;PMS_P2;Temp;Humidity;BMP_temperature;BMP_pressure;BME280_temperature;BME280_humidity;BME280_pressure;Samples;Min_cycle;Max_cycle;Signal;HPM_P1;HPM_P2
2021/01/10 00:00:42;;;;;;;10.63;6.13;;;-0.20;99.90;;;;;;6271156;22;20114;-85
2021/01/10 00:03:08;;;;;;;9.70;5.47;;;-0.30;99.90;;;;;;6270858;22;20087;-84
2021/01/10 00:05:37;;;;;;;12.07;5.90;;;-0.30;99.90;;;;;;6244336;22;20030;-84
2021/01/10 00:08:04;;;;;;;9.73;6.00;;;-0.30;99.90;;;;;;6269314;22;20354;-84
2021/01/10 00:10:30;;;;;;;8.02;5.47;;;-0.30;99.90;;;;;;6269769;22;20008;-85
2021/01/10 00:13:00;;;;;;;9.73;5.43;;;-0.30;99.90;;;;;;6267516;22;20003;-85
2021/01/10 00:15:27;;;;;;;9.45;5.95;;;-0.40;99.90;;;;;;6271304;22;20007;-85
2021/01/10 00:17:53;;;;;;;8.90;5.65;;;-0.40;99.90;;;;;;6269294;22;20043;-85
2021/01/10 00:20:19;;;;;;;9.30;5.93;;;-0.40;99.90;;;;;;6269235;22;20011;-85
2021/01/10 00:22:49;;;;;;;10.73;5.80;;;-0.40;99.90;;;;;;6269343;22;20431;-84
2021/01/10 00:25:15;;;;;;;9.60;5.63;;;-0.40;99.90;;;;;;6268870;22;20026;-85
2021/01/10 00:27:41;;;;;;;7.47;5.13;;;-0.40;99.90;;;;;;6271105;22;20008;-83
2021/01/10 00:30:09;;;;;;;8.18;5.95;;;-0.40;99.90;;;;;;6269251;22;20011;-86
2021/01/10 00:32:36;;;;;;;9.60;6.15;;;-0.40;99.90;;;;;;6270869;22;20375;-85
2021/01/10 00:35:04;;;;;;;10.00;5.80;;;-0.50;99.90;;;;;;6271297;22;20508;-85
2021/01/10 00:37:30;;;;;;;10.02;6.25;;;-0.50;99.90;;;;;;6268817;22;20505;-85
2021/01/10 00:39:56;;;;;;;10.48;6.63;;;-0.50;99.90;;;;;;6270491;22;20442;-84
2021/01/10 00:42:22;;;;;;;11.35;6.18;;;-0.50;99.90;;;;;;6275175;22;20007;-84
2021/01/10 00:44:48;;;;;;;8.98;6.57;;;-0.50;99.90;;;;;;6277068;22;20012;-86
2021/01/10 00:47:18;;;;;;;13.00;6.13;;;-0.50;99.90;;;;;;6277358;22;20003;-84
2021/01/10 00:49:45;;;;;;;11.20;6.88;;;-0.60;99.90;;;;;;6276859;22;19996;-84
2021/01/10 00:52:10;;;;;;;15.18;8.30;;;-0.60;99.90;;;;;;6275282;22;20035;-84
2021/01/10 00:54:36;;;;;;;14.00;8.85;;;-0.60;99.90;;;;;;6275555;22;20003;-85
2021/01/10 00:57:02;;;;;;;12.93;8.20;;;-0.60;99.90;;;;;;6275533;22;20132;-83
2021/01/10 00:59:27;;;;;;;14.00;7.35;;;-0.60;99.90;;;;;;6277337;22;20084;-84
2021/01/10 01:01:53;;;;;;;12.00;7.38;;;-0.60;99.90;;;;;;6276923;22;20300;-84
2021/01/10 01:04:19;;;;;;;10.27;7.28;;;-0.60;99.90;;;;;;6275804;22;20070;-85
2021/01/10 01:06:45;;;;;;;9.43;5.97;;;-0.60;99.90;;;;;;6277800;22;20008;-83
2021/01/10 01:09:11;;;;;;;10.50;6.57;;;-0.60;99.90;;;;;;6280143;22;20015;-84
2021/01/10 01:11:38;;;;;;;10.77;7.60;;;-0.70;99.90;;;;;;6282430;22;20004;-84
2021/01/10 01:14:06;;;;;;;11.27;7.43;;;-0.70;99.90;;;;;;6292777;22;20030;-82
2021/01/10 01:16:34;;;;;;;10.85;6.32;;;-0.70;99.90;;;;;;6301210;22;20008;-83
2021/01/10 01:19:00;;;;;;;11.85;6.57;;;-0.80;99.90;;;;;;6304306;22;19995;-84
2021/01/10 01:21:25;;;;;;;12.00;7.35;;;-0.80;99.90;;;;;;6302218;22;20020;-85
2021/01/10 01:23:51;;;;;;;11.70;7.47;;;-0.80;99.90;;;;;;6289485;22;20004;-83
2021/01/10 01:26:26;;;;;;;10.77;6.82;;;-0.80;99.90;;;;;;6286901;22;20346;-83
2021/01/10 01:28:52;;;;;;;10.52;7.43;;;-0.80;99.90;;;;;;6286625;22;20090;-83
2021/01/10 01:31:27;;;;;;;11.57;7.57;;;-0.90;99.90;;;;;;6282750;22;20107;-85
2021/01/10 01:33:53;;;;;;;13.48;8.48;;;-0.80;99.90;;;;;;6277356;22;20085;-83
2021/01/10 01:36:28;;;;;;;11.10;7.63;;;-0.80;99.90;;;;;;6277021;22;20085;-84
2021/01/10 01:38:59;;;;;;;13.65;8.48;;;-0.90;99.90;;;;;;6278346;22;20027;-82
2021/01/10 01:41:25;;;;;;;12.50;8.25;;;-0.90;99.90;;;;;;6276833;22;20016;-84
2021/01/10 01:43:51;;;;;;;12.82;7.93;;;-0.90;99.90;;;;;;6277141;22;20078;-84
2021/01/10 01:46:28;;;;;;;12.02;8.63;;;-0.90;99.90;;;;;;6278797;22;20091;-85
2021/01/10 01:48:56;;;;;;;13.02;9.50;;;-0.90;99.90;;;;;;6276968;22;20003;-84
2021/01/10 01:51:21;;;;;;;14.18;8.52;;;-0.80;99.90;;;;;;6278194;22;20000;-84
2021/01/10 01:53:48;;;;;;;12.05;8.35;;;-0.80;99.90;;;;;;6276889;22;20004;-84
2021/01/10 01:56:13;;;;;;;13.70;10.07;;;-0.80;99.90;;;;;;6278362;22;20007;-85
2021/01/10 01:59:02;;;;;;;15.80;10.75;;;-0.80;99.90;;;;;;6275886;22;20308;-84
2021/01/10 02:01:30;;;;;;;15.52;9.73;;;-0.80;99.90;;;;;;6277281;22;20007;-84
2021/01/10 02:04:00;;;;;;;14.75;9.55;;;-0.90;99.90;;;;;;6276382;22;20012;-84
2021/01/10 02:06:30;;;;;;;16.75;9.30;;;-0.90;99.90;;;;;;6276431;22;20499;-84
2021/01/10 02:09:04;;;;;;;13.40;9.50;;;-0.90;99.90;;;;;;6276506;22;20003;-83
2021/01/10 02:11:33;;;;;;;13.77;8.60;;;-0.90;99.90;;;;;;6276564;22;20007;-83
2021/01/10 02:14:04;;;;;;;13.13;8.45;;;-0.90;99.90;;;;;;6276845;22;20027;-85
2021/01/10 02:16:30;;;;;;;11.23;7.80;;;-0.90;99.90;;;;;;6276077;22;20003;-84
2021/01/10 02:18:57;;;;;;;15.98;8.98;;;-0.90;99.90;;;;;;6276299;22;20008;-84
2021/01/10 02:21:24;;;;;;;13.35;9.05;;;-0.80;99.90;;;;;;6276390;22;20062;-84
2021/01/10 02:23:52;;;;;;;15.27;9.65;;;-0.80;99.90;;;;;;6278098;22;20030;-85
2021/01/10 02:26:18;;;;;;;13.25;8.95;;;-0.70;99.90;;;;;;6276421;22;20022;-85
2021/01/10 02:28:44;;;;;;;12.02;8.52;;;-0.70;99.90;;;;;;6277956;22;20028;-84
2021/01/10 02:31:09;;;;;;;16.75;9.85;;;-0.70;99.90;;;;;;6277561;22;20007;-84
2021/01/10 02:33:35;;;;;;;15.18;8.35;;;-0.70;99.90;;;;;;6275885;22;20422;-85
2021/01/10 02:36:06;;;;;;;13.35;8.40;;;-0.70;99.90;;;;;;6277395;22;20008;-84
2021/01/10 02:38:43;;;;;;;12.60;8.65;;;-0.70;99.90;;;;;;6275948;22;20338;-85
2021/01/10 02:41:19;;;;;;;13.38;8.45;;;-0.70;99.90;;;;;;6277883;22;19999;-84
2021/01/10 02:44:15;;;;;;;11.35;7.97;;;-0.80;99.90;;;;;;6276768;22;20000;-84
2021/01/10 02:46:45;;;;;;;11.50;8.13;;;-0.80;99.90;;;;;;6263811;22;20030;-85
2021/01/10 02:49:12;;;;;;;12.25;8.52;;;-0.90;99.90;;;;;;6278021;22;20326;-85
2021/01/10 02:51:37;;;;;;;11.32;7.70;;;-0.90;99.90;;;;;;6277512;22;20004;-83
2021/01/10 02:54:03;;;;;;;10.70;7.00;;;-1.00;99.90;;;;;;6278077;22;20074;-84
2021/01/10 02:56:34;;;;;;;10.88;7.75;;;-1.00;99.90;;;;;;6276353;22;20004;-85
2021/01/10 02:59:01;;;;;;;11.35;7.97;;;-1.00;99.90;;;;;;6276509;22;20012;-85
2021/01/10 03:01:27;;;;;;;10.23;7.45;;;-1.00;99.90;;;;;;6276026;22;20426;-84
2021/01/10 03:03:54;;;;;;;12.93;8.13;;;-1.10;99.90;;;;;;6277919;22;20027;-84
2021/01/10 03:06:21;;;;;;;13.63;7.85;;;-1.10;99.90;;;;;;6276154;22;20199;-85
2021/01/10 03:08:48;;;;;;;11.80;8.15;;;-1.10;99.90;;;;;;6276067;22;20008;-86
2021/01/10 03:11:14;;;;;;;11.40;8.27;;;-1.10;99.90;;;;;;6276417;22;20177;-85
2021/01/10 03:13:39;;;;;;;10.60;7.15;;;-1.10;99.90;;;;;;6277464;22;20444;-85
2021/01/10 03:16:05;;;;;;;12.25;7.47;;;-1.10;99.90;;;;;;6275727;22;20007;-86
2021/01/10 03:18:31;;;;;;;11.27;7.80;;;-1.20;99.90;;;;;;6278093;22;19996;-86
2021/01/10 03:20:56;;;;;;;12.80;8.20;;;-1.20;99.90;;;;;;6275976;22;20065;-85
2021/01/10 03:23:22;;;;;;;11.40;8.02;;;-1.20;99.90;;;;;;6277101;22;20425;-83
2021/01/10 03:25:47;;;;;;;10.85;7.20;;;-1.20;99.90;;;;;;6276092;22;20066;-85
2021/01/10 03:28:13;;;;;;;9.68;6.85;;;-1.20;99.90;;;;;;6276380;22;20004;-86
2021/01/10 03:30:39;;;;;;;10.82;7.00;;;-1.20;99.90;;;;;;6277312;22;20329;-86
2021/01/10 03:33:05;;;;;;;10.50;7.43;;;-1.20;99.90;;;;;;6275826;22;19995;-85
2021/01/10 03:35:31;;;;;;;11.55;7.65;;;-1.20;99.90;;;;;;6277036;22;20082;-85
2021/01/10 03:37:56;;;;;;;12.07;8.25;;;-1.10;99.90;;;;;;6277367;22;20027;-85
2021/01/10 03:40:22;;;;;;;11.68;8.98;;;-1.10;99.90;;;;;;6275900;22;20058;-85
2021/01/10 03:42:48;;;;;;;13.98;8.55;;;-1.10;99.90;;;;;;6277051;22;20079;-85
2021/01/10 03:45:16;;;;;;;12.55;8.25;;;-1.00;99.90;;;;;;6275784;22;20438;-85
2021/01/10 03:47:42;;;;;;;12.13;7.85;;;-1.00;99.90;;;;;;6275697;22;20058;-86
2021/01/10 03:50:09;;;;;;;10.88;7.80;;;-0.90;99.90;;;;;;6275306;22;20427;-85
2021/01/10 03:52:35;;;;;;;11.32;8.02;;;-0.90;99.90;;;;;;6275193;22;20041;-84
2021/01/10 03:55:01;;;;;;;11.30;7.80;;;-0.80;99.90;;;;;;6277267;22;20330;-85
2021/01/10 03:57:26;;;;;;;13.52;8.32;;;-0.80;99.90;;;;;;6277024;22;20476;-85
2021/01/10 03:59:52;;;;;;;16.15;8.75;;;-0.70;99.90;;;;;;6276913;22;20062;-84
2021/01/10 04:02:17;;;;;;;14.57;9.18;;;-0.70;99.90;;;;;;6274928;22;20004;-86
2021/01/10 04:04:43;;;;;;;13.30;9.13;;;-0.60;99.90;;;;;;6277202;22;20476;-85
2021/01/10 04:07:08;;;;;;;12.68;8.98;;;-0.60;99.90;;;;;;6275064;22;20034;-85
2021/01/10 04:09:35;;;;;;;12.43;8.73;;;-0.60;99.90;;;;;;6277193;22;20006;-85
2021/01/10 04:12:00;;;;;;;14.25;8.60;;;-0.60;99.90;;;;;;6276945;22;20109;-85
2021/01/10 04:14:26;;;;;;;13.30;8.95;;;-0.60;99.90;;;;;;6277020;22;20556;-84
2021/01/10 04:16:53;;;;;;;13.00;8.45;;;-0.60;99.90;;;;;;6276494;22;20007;-84
2021/01/10 04:19:20;;;;;;;13.80;9.65;;;-0.60;99.90;;;;;;6276774;22;20004;-86
2021/01/10 04:21:46;;;;;;;11.65;8.00;;;-0.70;99.90;;;;;;6277201;22;19999;-85
2021/01/10 04:24:12;;;;;;;12.40;8.63;;;-0.70;99.90;;;;;;6276784;22;20026;-85
2021/01/10 04:26:49;;;;;;;11.65;8.68;;;-0.80;99.90;;;;;;6276868;22;20431;-86
2021/01/10 04:29:19;;;;;;;12.18;8.90;;;-0.80;99.90;;;;;;6277015;22;20000;-84
2021/01/10 04:31:49;;;;;;;16.23;9.93;;;-0.90;99.90;;;;;;6275424;22;20019;-86
2021/01/10 04:34:15;;;;;;;12.70;8.57;;;-0.90;99.90;;;;;;6276881;22;20020;-86
2021/01/10 04:36:41;;;;;;;13.90;9.23;;;-1.00;99.90;;;;;;6277267;22;20047;-85
2021/01/10 04:39:07;;;;;;;13.20;8.90;;;-1.00;99.90;;;;;;6280865;22;20003;-83
2021/01/10 04:41:33;;;;;;;12.85;8.63;;;-1.00;99.90;;;;;;6281047;22;20019;-82
2021/01/10 04:44:00;;;;;;;12.80;8.43;;;-1.10;99.90;;;;;;6281623;22;19999;-85
2021/01/10 04:46:27;;;;;;;10.85;8.25;;;-1.10;99.90;;;;;;6295136;22;19992;-86
2021/01/10 04:48:53;;;;;;;13.15;8.70;;;-1.20;99.90;;;;;;6303637;22;19992;-86
2021/01/10 04:51:21;;;;;;;11.20;7.82;;;-1.20;99.90;;;;;;6288333;22;20007;-86
2021/01/10 04:53:49;;;;;;;11.70;7.97;;;-1.20;99.90;;;;;;6277523;22;20000;-85
2021/01/10 04:56:17;;;;;;;13.60;8.63;;;-1.20;99.90;;;;;;6275238;22;20429;-85
2021/01/10 04:58:50;;;;;;;12.18;7.35;;;-1.20;99.90;;;;;;6275058;22;20037;-84
2021/01/10 05:01:19;;;;;;;11.52;7.53;;;-1.20;99.90;;;;;;6275530;22;20082;-85
2021/01/10 05:03:45;;;;;;;11.98;7.57;;;-1.20;99.90;;;;;;6275131;22;20008;-84
2021/01/10 05:06:11;;;;;;;10.45;7.70;;;-1.20;99.90;;;;;;6274853;22;20042;-85
2021/01/10 05:08:37;;;;;;;11.07;7.53;;;-1.20;99.90;;;;;;6274981;22;20008;-85
2021/01/10 05:11:03;;;;;;;11.50;7.38;;;-1.20;99.90;;;;;;6274836;22;20043;-85
2021/01/10 05:13:28;;;;;;;11.82;7.85;;;-1.20;99.90;;;;;;6276678;22;20022;-86
2021/01/10 05:15:57;;;;;;;13.60;8.45;;;-1.30;99.90;;;;;;6274471;22;20061;-85
2021/01/10 05:18:24;;;;;;;14.55;8.10;;;-1.30;99.90;;;;;;6275070;22;20007;-85
2021/01/10 05:20:55;;;;;;;12.10;8.02;;;-1.30;99.90;;;;;;6274748;22;19999;-84
2021/01/10 05:23:27;;;;;;;10.38;7.18;;;-1.40;99.90;;;;;;6276344;22;20000;-85
2021/01/10 05:26:05;;;;;;;12.45;8.13;;;-1.40;99.90;;;;;;6273473;22;20483;-86
2021/01/10 05:28:32;;;;;;;13.75;7.90;;;-1.40;99.90;;;;;;6276458;22;20431;-86
2021/01/10 05:31:01;;;;;;;9.38;6.93;;;-1.40;99.90;;;;;;6276409;22;19999;-85
2021/01/10 05:33:27;;;;;;;11.27;7.32;;;-1.40;99.90;;;;;;6274523;22;20419;-85
2021/01/10 05:35:55;;;;;;;13.18;7.50;;;-1.40;99.90;;;;;;6276450;22;20022;-85
2021/01/10 05:38:30;;;;;;;10.75;6.88;;;-1.40;99.90;;;;;;6275006;22;20004;-85
2021/01/10 05:40:59;;;;;;;11.77;6.93;;;-1.40;99.90;;;;;;6276272;22;20323;-84
2021/01/10 05:43:25;;;;;;;11.38;7.95;;;-1.40;99.90;;;;;;6275026;22;20026;-83
2021/01/10 05:45:51;;;;;;;14.07;8.48;;;-1.30;99.90;;;;;;6276319;22;20342;-85
2021/01/10 05:48:18;;;;;;;13.00;8.23;;;-1.30;99.90;;;;;;6274548;22;20004;-85
2021/01/10 05:50:46;;;;;;;14.43;8.88;;;-1.20;99.90;;;;;;6274496;22;20496;-85
2021/01/10 05:53:17;;;;;;;11.10;7.93;;;-1.20;99.90;;;;;;6274812;22;20106;-86
2021/01/10 05:55:55;;;;;;;11.50;8.57;;;-1.20;99.90;;;;;;6274903;22;20346;-84
2021/01/10 05:58:23;;;;;;;12.52;8.70;;;-1.20;99.90;;;;;;6276022;22;19999;-85
2021/01/10 06:00:51;;;;;;;12.07;8.60;;;-1.10;99.90;;;;;;6274510;22;20011;-85
2021/01/10 06:03:21;;;;;;;12.00;7.85;;;-1.00;99.90;;;;;;6276329;22;20000;-84
2021/01/10 06:05:54;;;;;;;14.63;9.05;;;-0.90;99.90;;;;;;6276295;22;20020;-87
2021/01/10 06:08:32;;;;;;;13.07;8.60;;;-0.90;99.90;;;;;;6276510;22;20070;-85
2021/01/10 06:11:20;;;;;;;12.23;8.45;;;-0.80;99.90;;;;;;6278238;22;20070;-84
2021/01/10 06:13:53;;;;;;;12.70;8.63;;;-0.70;99.90;;;;;;6278074;22;20372;-85
2021/01/10 06:16:21;;;;;;;16.13;8.57;;;-0.70;99.90;;;;;;6278159;22;20488;-85
2021/01/10 06:18:50;;;;;;;12.25;8.77;;;-0.70;99.90;;;;;;6276883;22;20042;-85
2021/01/10 06:21:18;;;;;;;13.68;8.75;;;-0.60;99.90;;;;;;6276370;22;20007;-85
2021/01/10 06:23:47;;;;;;;13.60;9.73;;;-0.50;99.90;;;;;;6278173;22;20004;-85
2021/01/10 06:26:16;;;;;;;14.38;9.75;;;-0.50;99.90;;;;;;6276587;22;20098;-85
2021/01/10 06:28:51;;;;;;;13.13;9.57;;;-0.60;99.90;;;;;;6278120;22;20002;-86
2021/01/10 06:31:22;;;;;;;13.20;9.75;;;-0.50;99.90;;;;;;6276956;22;20000;-85
2021/01/10 06:33:54;;;;;;;15.25;9.15;;;-0.50;99.90;;;;;;6277648;22;20007;-86
2021/01/10 06:36:22;;;;;;;12.27;8.60;;;-0.40;99.90;;;;;;6277994;22;20012;-85
2021/01/10 06:38:52;;;;;;;12.77;8.43;;;-0.40;99.90;;;;;;6278233;22;20022;-86
2021/01/10 06:41:39;;;;;;;13.40;8.98;;;-0.30;99.90;;;;;;6278097;22;20008;-85
2021/01/10 06:44:07;;;;;;;11.98;8.60;;;-0.30;99.90;;;;;;6280466;22;20003;-85
2021/01/10 06:46:33;;;;;;;14.05;8.43;;;-0.30;99.90;;;;;;6280581;22;20012;-85
2021/01/10 06:49:03;;;;;;;12.13;8.60;;;-0.20;99.90;;;;;;6305013;22;19990;-86
2021/01/10 06:51:29;;;;;;;13.02;8.75;;;-0.20;99.90;;;;;;6305607;22;20007;-85
2021/01/10 06:53:56;;;;;;;13.23;9.60;;;-0.20;99.90;;;;;;6306007;22;20067;-86
2021/01/10 06:56:22;;;;;;;12.98;9.20;;;-0.20;99.90;;;;;;6299831;22;20012;-84
2021/01/10 06:59:10;;;;;;;12.20;8.77;;;-0.20;99.90;;;;;;6291760;22;20346;-83
2021/01/10 07:01:48;;;;;;;10.75;8.43;;;-0.20;99.90;;;;;;6288257;22;20021;-83
2021/01/10 07:04:24;;;;;;;11.05;7.82;;;-0.20;99.90;;;;;;6287384;22;20008;-85
2021/01/10 07:06:51;;;;;;;12.32;8.82;;;-0.20;99.90;;;;;;6276445;22;20343;-86
2021/01/10 07:09:18;;;;;;;12.68;9.15;;;-0.20;99.90;;;;;;6275865;22;20038;-86
2021/01/10 07:11:45;;;;;;;13.45;9.75;;;-0.10;99.90;;;;;;6277624;22;20034;-85
2021/01/10 07:14:14;;;;;;;11.80;8.90;;;-0.10;99.90;;;;;;6277604;22;20000;-85
2021/01/10 07:16:45;;;;;;;13.13;8.68;;;-0.10;99.90;;;;;;6275705;22;20489;-85
2021/01/10 07:19:15;;;;;;;12.65;8.30;;;-0.10;99.90;;;;;;6277610;22;20091;-85
2021/01/10 07:21:43;;;;;;;11.10;7.57;;;-0.10;99.90;;;;;;6275677;22;20057;-85
2021/01/10 07:24:26;;;;;;;12.55;7.82;;;-0.10;99.90;;;;;;6277413;22;20027;-86
2021/01/10 07:27:03;;;;;;;10.35;7.40;;;0.00;99.90;;;;;;6275900;22;20343;-86
2021/01/10 07:29:38;;;;;;;13.15;7.75;;;0.00;99.90;;;;;;6275902;22;20003;-85
2021/01/10 07:32:07;;;;;;;11.80;7.55;;;0.10;99.90;;;;;;6276219;22;20314;-85
2021/01/10 07:34:57;;;;;;;12.20;8.18;;;0.10;99.90;;;;;;6275442;22;20032;-85
2021/01/10 07:37:25;;;;;;;12.88;8.38;;;0.10;99.90;;;;;;6275323;22;20039;-86
2021/01/10 07:40:05;;;;;;;12.88;8.30;;;0.10;99.90;;;;;;6277246;22;20002;-86
2021/01/10 07:42:33;;;;;;;12.20;7.93;;;0.10;99.90;;;;;;6277549;22;20003;-84
2021/01/10 07:45:20;;;;;;;11.20;7.45;;;0.10;99.90;;;;;;6275667;22;20012;-86
2021/01/10 07:47:51;;;;;;;12.98;8.25;;;0.10;99.90;;;;;;6275913;22;19999;-85
2021/01/10 07:50:17;;;;;;;13.10;9.18;;;0.20;99.90;;;;;;6269560;22;20134;-86
2021/01/10 07:52:42;;;;;;;13.90;8.88;;;0.20;99.90;;;;;;6275636;22;20054;-86
2021/01/10 07:55:20;;;;;;;14.15;9.38;;;0.20;99.90;;;;;;6277553;22;20377;-86
2021/01/10 07:58:01;;;;;;;19.80;12.55;;;0.30;99.90;;;;;;6275533;22;20014;-84
2021/01/10 08:00:32;;;;;;;16.52;11.13;;;0.20;99.90;;;;;;6275324;22;20093;-87
2021/01/10 08:03:08;;;;;;;14.25;10.27;;;0.30;99.90;;;;;;6275592;22;20019;-85
2021/01/10 08:05:35;;;;;;;13.18;9.75;;;0.30;99.90;;;;;;6277639;22;20019;-85
2021/01/10 08:08:05;;;;;;;14.82;10.27;;;0.30;99.90;;;;;;6275404;22;20042;-84
2021/01/10 08:10:52;;;;;;;14.07;9.18;;;0.40;99.90;;;;;;6275366;22;20334;-86
2021/01/10 08:13:27;;;;;;;10.70;8.43;;;0.50;99.90;;;;;;6276959;22;20333;-86
2021/01/10 08:15:53;;;;;;;12.60;9.13;;;0.50;99.90;;;;;;6277000;22;20037;-84
2021/01/10 08:18:24;;;;;;;12.52;8.10;;;0.50;99.90;;;;;;6277216;22;20030;-85
2021/01/10 08:20:54;;;;;;;13.57;9.23;;;0.50;99.90;;;;;;6275371;22;20023;-87
2021/01/10 08:23:21;;;;;;;12.27;9.15;;;0.50;99.90;;;;;;6276786;22;20003;-87
2021/01/10 08:25:49;;;;;;;14.20;9.30;;;0.50;99.90;;;;;;6274785;22;20016;-84
2021/01/10 08:28:18;;;;;;;13.20;8.15;;;0.60;99.90;;;;;;6274991;22;20000;-86
2021/01/10 08:30:45;;;;;;;12.80;8.35;;;0.60;99.90;;;;;;6275556;22;20014;-86
2021/01/10 08:33:20;;;;;;;11.55;8.05;;;0.60;99.90;;;;;;6276874;22;20050;-86
2021/01/10 08:35:47;;;;;;;10.88;8.30;;;0.70;99.90;;;;;;6276613;22;20458;-86
2021/01/10 08:38:13;;;;;;;12.80;8.35;;;0.70;99.90;;;;;;6275347;22;20117;-85
2021/01/10 08:40:39;;;;;;;14.75;10.43;;;0.70;99.90;;;;;;6275286;22;20505;-87
2021/01/10 08:43:05;;;;;;;11.45;8.55;;;0.80;99.90;;;;;;6276719;22;20049;-85
2021/01/10 08:45:31;;;;;;;16.42;9.95;;;0.80;99.90;;;;;;6276527;22;20007;-84
2021/01/10 08:48:04;;;;;;;13.75;9.27;;;0.90;99.90;;;;;;6276463;22;20000;-84
2021/01/10 08:50:42;;;;;;;11.32;8.65;;;0.90;99.90;;;;;;6275328;22;20007;-84
2021/01/10 08:53:10;;;;;;;11.48;8.50;;;0.90;99.90;;;;;;6276540;22;20004;-84
2021/01/10 08:55:42;;;;;;;14.15;9.50;;;0.90;99.90;;;;;;6276196;22;20000;-84
2021/01/10 08:58:10;;;;;;;12.60;8.65;;;0.90;99.90;;;;;;6275000;22;20007;-85
2021/01/10 09:00:41;;;;;;;14.35;9.25;;;0.80;99.90;;;;;;6276402;22;20103;-87
2021/01/10 09:03:16;;;;;;;14.52;11.07;;;0.90;99.90;;;;;;6276571;22;20006;-85
2021/01/10 09:05:44;;;;;;;15.57;11.48;;;1.00;99.90;;;;;;6276551;22;20043;-85
2021/01/10 09:08:40;;;;;;;14.02;10.02;;;1.10;99.90;;;;;;6276862;22;20468;-86
2021/01/10 09:11:16;;;;;;;12.77;9.77;;;1.20;99.90;;;;;;6264405;22;20011;-84
2021/01/10 09:13:44;;;;;;;15.32;9.82;;;1.30;99.90;;;;;;6276125;22;20447;-86
2021/01/10 09:16:12;;;;;;;14.30;10.95;;;1.30;99.90;;;;;;6274767;22;20004;-85
2021/01/10 09:18:39;;;;;;;16.58;10.20;;;1.30;99.90;;;;;;6276497;22;19999;-86
2021/01/10 09:21:16;;;;;;;13.32;9.98;;;1.30;99.90;;;;;;6275943;22;20007;-86
2021/01/10 09:23:56;;;;;;;15.88;10.43;;;1.30;99.90;;;;;;6274428;22;20430;-86
2021/01/10 09:26:34;;;;;;;15.13;9.85;;;1.30;99.90;;;;;;6274424;22;20022;-86
2021/01/10 09:29:02;;;;;;;14.68;10.38;;;1.30;99.90;;;;;;6275102;22;20033;-86
2021/01/10 09:31:48;;;;;;;13.50;10.18;;;1.30;99.90;;;;;;6274866;22;20434;-85
2021/01/10 09:34:24;;;;;;;14.43;10.95;;;1.40;99.90;;;;;;6276252;22;20027;-87
2021/01/10 09:37:03;;;;;;;16.70;10.38;;;1.40;99.90;;;;;;6275016;22;20007;-87
2021/01/10 09:39:42;;;;;;;15.85;11.27;;;1.40;99.90;;;;;;6275359;22;20007;-87
2021/01/10 09:42:08;;;;;;;16.73;11.60;;;1.40;99.90;;;;;;6274717;22;20457;-87
2021/01/10 09:44:34;;;;;;;14.95;10.88;;;1.50;99.90;;;;;;6275119;22;20004;-87
2021/01/10 09:47:00;;;;;;;17.60;12.05;;;1.50;99.90;;;;;;6279178;22;20007;-85
2021/01/10 09:49:31;;;;;;;16.38;12.85;;;1.60;99.90;;;;;;6277976;22;20006;-87
2021/01/10 09:52:00;;;;;;;17.38;12.52;;;1.60;99.90;;;;;;6278023;22;20363;-84
2021/01/10 09:54:28;;;;;;;17.10;13.50;;;1.90;99.90;;;;;;6279283;22;19995;-88
2021/01/10 09:57:03;;;;;;;19.92;14.55;;;2.30;99.90;;;;;;6278743;22;19995;-88
2021/01/10 09:59:54;;;;;;;19.05;14.95;;;2.80;99.90;;;;;;6277140;22;20453;-86
2021/01/10 10:02:21;;;;;;;19.27;14.15;;;3.20;99.90;;;;;;6277030;22;20010;-87
2021/01/10 10:04:51;;;;;;;20.13;14.00;;;3.20;99.90;;;;;;6277229;22;20019;-87
2021/01/10 10:07:34;;;;;;;16.88;14.82;;;3.30;99.90;;;;;;6278405;22;20004;-86
2021/01/10 10:10:01;;;;;;;19.73;14.93;;;3.40;99.90;;;;;;6278722;22;19996;-88
2021/01/10 10:12:27;;;;;;;20.77;14.18;;;3.30;99.90;;;;;;6251882;22;20012;-88
2021/01/10 10:15:07;;;;;;;18.98;14.55;;;3.10;99.90;;;;;;6278735;22;20004;-87
2021/01/10 10:17:35;;;;;;;17.80;12.85;;;3.00;99.90;;;;;;6277572;22;20004;-88
2021/01/10 10:20:03;;;;;;;19.85;13.60;;;3.00;99.90;;;;;;6277066;22;20435;-88
2021/01/10 10:22:30;;;;;;;14.15;11.38;;;3.00;99.90;;;;;;6276773;22;20090;-87
2021/01/10 10:24:57;;;;;;;16.13;12.32;;;3.00;99.90;;;;;;6278711;22;20004;-89
2021/01/10 10:27:29;;;;;;;17.30;12.60;;;2.90;99.90;;;;;;6278476;22;20382;-86
2021/01/10 10:29:55;;;;;;;17.20;14.20;;;2.80;99.90;;;;;;6279135;22;19996;-91
2021/01/10 10:32:21;;;;;;;17.92;14.05;;;2.70;99.90;;;;;;6276879;22;20011;-88
2021/01/10 10:34:48;;;;;;;20.13;14.07;;;2.60;99.90;;;;;;6276495;22;20439;-86
2021/01/10 10:37:14;;;;;;;17.52;14.32;;;2.50;99.90;;;;;;6278366;22;20004;-87
2021/01/10 10:39:39;;;;;;;19.60;15.98;;;2.40;99.90;;;;;;6278750;22;20035;-85
2021/01/10 10:42:09;;;;;;;21.85;14.80;;;2.40;99.90;;;;;;6276654;22;20010;-88
2021/01/10 10:44:34;;;;;;;21.42;16.48;;;2.40;99.90;;;;;;6276733;22;20026;-88
2021/01/10 10:47:00;;;;;;;21.73;17.25;;;2.40;99.90;;;;;;6276581;22;20035;-87
2021/01/10 10:49:25;;;;;;;23.90;17.38;;;2.40;99.90;;;;;;6278406;22;20419;-86
2021/01/10 10:51:51;;;;;;;19.23;15.25;;;2.50;99.90;;;;;;6277848;22;20061;-85
2021/01/10 10:54:17;;;;;;;20.20;16.30;;;2.60;99.90;;;;;;6276971;22;20004;-86
2021/01/10 10:56:42;;;;;;;20.20;16.00;;;2.70;99.90;;;;;;6277598;22;20370;-86
2021/01/10 10:59:08;;;;;;;21.00;15.38;;;2.70;99.90;;;;;;6276747;22;20043;-85
2021/01/10 11:01:42;;;;;;;22.30;15.77;;;2.70;99.90;;;;;;6276544;22;20053;-87
2021/01/10 11:04:07;;;;;;;24.50;17.63;;;2.70;99.90;;;;;;6276850;22;20027;-85
2021/01/10 11:06:34;;;;;;;24.35;18.30;;;2.70;99.90;;;;;;6277977;22;20429;-86
2021/01/10 11:09:01;;;;;;;25.30;20.90;;;2.70;99.90;;;;;;6277928;22;20000;-84
2021/01/10 11:11:34;;;;;;;28.25;21.75;;;2.70;99.90;;;;;;6276601;22;20399;-86
2021/01/10 11:13:59;;;;;;;26.38;20.15;;;2.80;99.90;;;;;;6277018;22;20083;-85
2021/01/10 11:16:29;;;;;;;23.67;18.42;;;3.30;99.90;;;;;;6277369;22;20010;-86
2021/01/10 11:18:55;;;;;;;22.27;18.42;;;4.80;99.90;;;;;;6282536;22;20000;-83
2021/01/10 11:21:25;;;;;;;19.98;16.30;;;5.60;99.90;;;;;;6300866;22;19996;-88
2021/01/10 11:23:53;;;;;;;20.10;16.60;;;6.00;99.90;;;;;;6305130;22;20019;-85
2021/01/10 11:26:18;;;;;;;19.25;15.80;;;6.30;99.90;;;;;;6303950;22;20027;-90
2021/01/10 11:28:44;;;;;;;17.10;14.00;;;6.50;99.90;;;;;;6304119;22;20047;-87
2021/01/10 11:31:10;;;;;;;22.05;13.20;;;6.70;99.90;;;;;;6303040;22;19995;-86
2021/01/10 11:33:35;;;;;;;13.20;10.68;;;7.50;99.90;;;;;;6281797;22;20004;-88
2021/01/10 11:36:01;;;;;;;18.45;12.13;;;8.50;99.90;;;;;;6277009;22;20085;-87
2021/01/10 11:38:26;;;;;;;14.88;11.35;;;8.60;99.90;;;;;;6276622;22;20002;-86
2021/01/10 11:40:52;;;;;;;14.00;10.38;;;8.70;99.90;;;;;;6276460;22;20909;-86
2021/01/10 11:43:17;;;;;;;15.20;10.85;;;8.70;99.90;;;;;;6276175;22;20375;-87
2021/01/10 11:45:43;;;;;;;14.80;11.43;;;8.50;99.90;;;;;;6275895;22;20023;-89
2021/01/10 11:48:09;;;;;;;13.73;11.60;;;8.30;99.90;;;;;;6275700;22;20437;-86
2021/01/10 11:50:39;;;;;;;14.15;10.35;;;8.10;99.90;;;;;;6275030;22;20014;-87
2021/01/10 11:53:04;;;;;;;13.20;10.75;;;8.10;99.90;;;;;;6273960;22;20019;-85
2021/01/10 11:55:34;;;;;;;12.95;10.63;;;8.30;99.90;;;;;;6275819;22;20000;-85
2021/01/10 11:58:00;;;;;;;12.93;10.25;;;8.30;99.90;;;;;;6275022;22;20006;-86
2021/01/10 12:00:26;;;;;;;12.50;9.90;;;8.10;99.90;;;;;;6275702;22;20027;-86
2021/01/10 12:02:51;;;;;;;13.13;10.00;;;8.40;99.90;;;;;;6275525;22;20054;-85
2021/01/10 12:05:17;;;;;;;13.82;11.00;;;8.30;99.90;;;;;;6275482;22;20031;-86
2021/01/10 12:07:42;;;;;;;14.88;10.60;;;8.10;99.90;;;;;;6275912;22;20330;-86
2021/01/10 12:10:08;;;;;;;13.63;10.43;;;7.90;99.90;;;;;;6273080;22;20010;-86
2021/01/10 12:12:34;;;;;;;14.90;11.20;;;7.60;99.90;;;;;;6274860;22;20326;-86
2021/01/10 12:14:59;;;;;;;14.27;11.48;;;7.40;99.90;;;;;;6274633;22;20074;-85
2021/01/10 12:17:25;;;;;;;13.35;9.75;;;7.30;99.90;;;;;;6275513;22;20007;-86
2021/01/10 12:19:50;;;;;;;13.90;10.05;;;7.20;99.90;;;;;;6277734;22;20326;-85
2021/01/10 12:22:16;;;;;;;13.63;9.88;;;7.00;99.90;;;;;;6276330;22;20334;-85
2021/01/10 12:24:41;;;;;;;13.98;9.65;;;6.90;99.90;;;;;;6275716;22;20008;-86
2021/01/10 12:27:07;;;;;;;12.35;9.25;;;6.80;99.90;;;;;;6274951;22;20007;-85
2021/01/10 12:29:32;;;;;;;13.48;9.48;;;6.70;99.90;;;;;;6275784;22;20007;-86
2021/01/10 12:31:59;;;;;;;12.73;9.27;;;6.50;99.90;;;;;;6276577;22;20079;-87
2021/01/10 12:34:24;;;;;;;10.00;8.02;;;6.40;99.90;;;;;;6275467;22;20030;-86
2021/01/10 12:36:50;;;;;;;11.57;8.15;;;6.20;99.90;;;;;;6275574;22;20087;-85
2021/01/10 12:39:15;;;;;;;12.88;8.20;;;6.10;99.90;;;;;;6276896;22;20004;-85
2021/01/10 12:41:42;;;;;;;12.32;8.77;;;6.00;99.90;;;;;;6275583;22;20354;-85
2021/01/10 12:44:08;;;;;;;14.10;10.00;;;5.80;99.90;;;;;;6276211;22;19999;-87
2021/01/10 12:46:33;;;;;;;10.98;8.27;;;5.70;99.90;;;;;;6275609;22;20069;-86